Tiempo atmosférico en la estación meteorológica de Espolla, Girona (94 m.)

Fecha
DESCASC
Temp. máxima en grados centígrados (hora)
DESCASC
Temp. mínima en grados centígrados (hora)
DESCASC
Temp. media en grados centígrados
DESCASC
Racha de viento máxima en m/sg (hora)
DESCASC
Velocidad máxima media en intervalos de 10 minutos(hora)
DESCASC
Precipitaciones diarias en mm
DESCASC
Precipitaciones de 00:00 a 06:00 en mm
DESCASC
Precipitaciones de 06:00 a 12:00 en mm
DESCASC
Precipitaciones de 12:00 a 18:00 en mm
DESCASC
Precipitaciones de 18:00 a 24:00 en mm
DESCASC
17-08-2017 33.2 (16:20) 20.2 (04:20) 26.7 8.89 (15:30) 4.44 (17:10) 0 0 0 0 0
16-08-2017 30.7 (15:40) 18.6 (06:30) 24.7 6.94 (13:40) 4.44 (16:10) 0 0 0 0 0
15-08-2017 29.1 (14:20) 18.4 (00:00) 23.8 9.17 (15:00) 6.11 (15:50) 0 0 0 0 0
14-08-2017 30.4 (13:40) 17.9 (06:20) 24.1 12.78 (17:30) 7.78 (17:00) 0 0 0 0 0
13-08-2017 30.2 (12:20) 16.8 (00:00) 23.5 7.78 (16:10) 5.28 (13:00) 0 0 0 0 0
12-08-2017 29.3 (16:40) 18.5 (00:00) 23.9 12.78 (02:40) 7.22 (02:40) 0 0 0 0 0
11-08-2017 25.4 (14:10) 17.4 (00:00) 21.4 17.22 (01:50) 9.72 (01:50) 0 0 0 0 0
10-08-2017 27.1 (14:20) 17.1 (00:00) 22.1 19.44 (03:10) 11.11 (03:40) 0.4 0.4 0 0 0
09-08-2017 27.3 (14:30) 14.3 (00:00) 20.8 21.11 (19:50) 11.11 (20:10) 0.4 0 0 0 0.4
08-08-2017 24.8 (00:00) 20.9 (00:00) 22.8 19.72 (19:10) 11.11 (21:00) 1.6 0 0.8 0.8 0
07-08-2017 31.9 (18:50) 20.8 (00:00) 26.3 11.11 (17:30) 6.39 (17:30) 0 0 0 0 0
06-08-2017 32.6 (16:40) 21.3 (00:00) 26.9 15 (06:50) 7.22 (06:50) 2.8 0 2.8 0 0
05-08-2017 36.1 (16:20) 23.9 (00:00) 30 12.78 (20:30) 6.94 (20:10) 0 0 0 0 0
04-08-2017 37.4 (16:20) 22.9 (00:00) 30.2 7.5 (13:00) 4.17 (13:50) 0 0 0 0 0
03-08-2017 34.6 (13:40) 22.1 (00:00) 28.3 7.22 (14:50) 4.44 (12:30) 0 0 0 0 0
02-08-2017 33.3 (14:20) 20.2 (00:00) 26.8 7.5 (14:50) 4.72 (15:10) 0 0 0 0 0
01-08-2017 32.2 (17:30) 22.1 (00:00) 27.2 11.11 (17:30) 5.83 (18:30) 0 0 0 0 0
31-07-2017 32.9 (16:30) 19.8 (00:00) 26.4 7.5 (18:00) 4.72 (18:00) 0 0 0 0 0
30-07-2017 30.6 (16:10) 20.6 (00:00) 25.6 6.94 (14:10) 3.89 (22:10) 0 0 0 0 0
29-07-2017 30 (14:20) 19.6 (00:00) 24.8 10.83 (15:10) 6.39 (14:10) 0 0 0 0 0
28-07-2017 30.4 (15:50) 20.6 (00:00) 25.5 7.22 (16:10) 4.17 (17:10) 0 0 0 0 0
27-07-2017 30.2 (14:50) 17.4 (00:00) 23.8 8.89 (11:50) 5 (15:30) 0 0 0 0 0
26-07-2017 29.5 (16:40) 18.6 (00:00) 24.1 17.78 (00:20) 10 (00:50) 0 0 0 0 0
25-07-2017 27.5 (12:40) 19.3 (00:00) 23.4 23.33 (01:40) 12.5 (01:10) 0 0 0 0 0
24-07-2017 29.9 (15:00) 16.2 (00:00) 23.1 26.39 (23:10) 15.28 (23:20) 0 0 0 0 0
23-07-2017 30.5 (14:50) 18.6 (00:00) 24.6 10.56 (20:30) 6.11 (20:30) 12.8 0 0.2 0 12.6
22-07-2017 29.9 (17:50) 18 (00:00) 23.9 7.5 (13:40) 5 (13:40) 2 0 0 0 2
21-07-2017 27.9 (11:30) 18.5 (00:00) 23.2 7.22 (17:10) 4.17 (17:10) 0 0 0 0 0
20-07-2017 30.1 (15:30) 20.7 (00:00) 25.4 12.5 (04:30) 6.94 (05:10) 0 0 0 0 0
19-07-2017 30.1 (18:00) 20.3 (00:00) 25.2 10.83 (17:30) 6.94 (17:30) 0 0 0 0 0

Gráficas

Temp. máximas Temp. mínimas Temp. medias Precipitaciones Rachas de viento máximas Velocidades máximas media en intervalos de 10 minutos

Datos horarios

Fecha y hora oficial Temperatura (ºC) Velocidad del viento (km/h) Dirección del viento Racha (km/h) Dirección de racha Precipitación (mm) Presión (hPa) Tendencia (hPa) Humedad (%)
2017-08-17 23:00:00 24 3 Norte 9 Norte 0 -- -- 64
2017-08-17 22:00:00 24.9 3 Norte 8 Norte 0 -- -- 61
2017-08-17 21:00:00 26.8 3 Nordeste 9 Sur 0 -- -- 54
2017-08-17 20:00:00 28.5 5 Sur 14 Sur 0 -- -- 50
2017-08-17 19:00:00 30 11 Sur 22 Sur 0 -- -- 48
2017-08-17 18:00:00 31.4 15 Sur 29 Sudoeste 0 -- -- 45
2017-08-17 17:00:00 32.5 14 Sur 26 Sur 0 -- -- 43
2017-08-17 16:00:00 33 12 Sudeste 32 Este 0 -- -- 42
2017-08-17 15:00:00 32.7 9 Sudeste 22 Sur 0 -- -- 42
2017-08-17 14:00:00 32.3 11 Sur 23 Sudoeste 0 -- -- 44
2017-08-17 13:00:00 31.7 11 Sur 23 Sudoeste 0 -- -- 45
2017-08-17 12:00:00 30.4 7 Sur 20 Sur 0 -- -- 48
2017-08-17 11:00:00 29.3 7 Sur 13 Sur 0 -- -- 50
2017-08-17 10:00:00 27.3 5 Sudoeste 10 Sudoeste 0 -- -- 54
2017-08-17 09:00:00 25.1 3 Sudoeste 9 Nordeste 0 -- -- 63
2017-08-17 08:00:00 21.3 3 Norte 11 Nordeste 0 -- -- 74
2017-08-17 07:00:00 20.7 4 Nordeste 12 Nordeste 0 -- -- 75
2017-08-17 06:00:00 20.8 9 Nordeste 13 Nordeste 0 -- -- 75
2017-08-17 05:00:00 20.3 0 Calma 6 Nordeste 0 -- -- 78
2017-08-17 04:00:00 20.4 0 Calma 7 Nordeste 0 -- -- 78
2017-08-17 03:00:00 20.6 4 Nordeste 8 Nordeste 0 -- -- 77
2017-08-17 02:00:00 20.8 4 Nordeste 8 Norte 0 -- -- 79
2017-08-17 01:00:00 21 2 Nordeste 6 Norte 0 -- -- 79
2017-08-17 00:00:00 21.5 0 Calma 6 Noroeste 0 -- -- 76
2017-08-16 23:00:00 22.5 3 Nordeste 9 Norte 0 -- -- 74
2017-08-16 22:00:00 23.7 2 Nordeste 6 Sur 0 -- -- 71
2017-08-16 21:00:00 25 3 Sudoeste 8 Sudoeste 0 -- -- 66
2017-08-16 20:00:00 26.7 6 Sudoeste 21 Sudoeste 0 -- -- 62
2017-08-16 19:00:00 29.6 11 Sur 20 Sur 0 -- -- 52
2017-08-16 18:00:00 30.3 10 Sudoeste 23 Sudoeste 0 -- -- 46
2017-08-16 17:00:00 30.1 14 Sudoeste 24 Sudoeste 0 -- -- 46
2017-08-16 16:00:00 30.2 15 Sur 25 Sur 0 -- -- 49
2017-08-16 15:00:00 30.2 12 Sur 24 Sudeste 0 -- -- 49
2017-08-16 14:00:00 29.8 14 Sudoeste 25 Sur 0 -- -- 52
2017-08-16 13:00:00 29 9 Sur 19 Sudeste 0 -- -- 50
2017-08-16 12:00:00 28.3 9 Sur 23 Oeste 0 -- -- 55
2017-08-16 11:00:00 26.2 5 Sudoeste 11 Sur 0 -- -- 68
2017-08-16 10:00:00 23.6 4 Sudoeste 8 Sudoeste 0 -- -- 79
2017-08-16 09:00:00 21 2 Sur 5 Este 0 -- -- 90
2017-08-16 08:00:00 19.8 5 Nordeste 11 Nordeste 0 -- -- 88
2017-08-16 07:00:00 18.8 9 Nordeste 13 Nordeste 0 -- -- 91
2017-08-16 06:00:00 18.9 6 Nordeste 13 Nordeste 0 -- -- 93
2017-08-16 05:00:00 18.9 5 Nordeste 10 Nordeste 0 -- -- 93
2017-08-16 04:00:00 19.5 0 Calma 9 Norte 0 -- -- 91
2017-08-16 03:00:00 20.9 3 Este 10 Nordeste 0 -- -- 87
2017-08-16 02:00:00 21.9 8 Norte 15 Nordeste 0 -- -- 84
2017-08-16 01:00:00 21.8 6 Nordeste 13 Este 0 -- -- 85
2017-08-16 00:00:00 22.1 5 Nordeste 8 Nordeste 0 -- -- 86
2017-08-15 23:00:00 22.3 6 Sudeste 18 Norte 0 -- -- 85
2017-08-15 22:00:00 22.3 10 Nordeste 19 Nordeste 0 -- -- 85
2017-08-15 21:00:00 23.7 4 Sudoeste 16 Sur 0 -- -- 83
2017-08-15 20:00:00 24.6 10 Sur 18 Sur 0 -- -- 78
2017-08-15 19:00:00 26.3 4 Oeste 23 Sur 0 -- -- 68
2017-08-15 18:00:00 25.9 12 Sur 22 Sudeste 0 -- -- 70
2017-08-15 17:00:00 27 8 Sur 24 Sur 0 -- -- 65
2017-08-15 16:00:00 28 17 Sur 31 Sur 0 -- -- 55
2017-08-15 15:00:00 27.5 21 Sur 33 Sur 0 -- -- 59
2017-08-15 14:00:00 28.9 14 Sur 24 Sur 0 -- -- 47
2017-08-15 13:00:00 27.6 11 Sur 23 Sur 0 -- -- 60
2017-08-15 12:00:00 27 13 Sur 21 Sur 0 -- -- 63
2017-08-15 11:00:00 25.8 8 Sur 16 Sudoeste 0 -- -- 66
2017-08-15 10:00:00 24.5 6 Sudoeste 14 Sur 0 -- -- 70
2017-08-15 09:00:00 23.2 0 Calma 7 Sudoeste 0 -- -- 75
2017-08-15 08:00:00 20.1 0 Calma 5 Nordeste 0 -- -- 90
2017-08-15 07:00:00 19 0 Calma 5 Noroeste 0 -- -- 91
2017-08-15 06:00:00 19.2 2 Nordeste 8 Norte 0 -- -- 92
2017-08-15 05:00:00 19.1 3 Nordeste 11 Nordeste 0 -- -- 90
2017-08-15 04:00:00 18.4 7 Nordeste 13 Nordeste 0 -- -- 89
2017-08-15 03:00:00 18.9 8 Nordeste 13 Nordeste 0 -- -- 88
2017-08-15 02:00:00 19.5 8 Nordeste 12 Nordeste 0 -- -- 86
2017-08-15 01:00:00 19.9 5 Nordeste 9 Nordeste 0 -- -- 88
2017-08-15 00:00:00 20.5 4 Nordeste 8 Nordeste 0 -- -- 83
2017-08-14 23:00:00 21.6 2 Este 8 Este 0 -- -- 81
2017-08-14 22:00:00 22.5 3 Este 9 Sur 0 -- -- 77
2017-08-14 21:00:00 23.5 8 Sur 25 Sur 0 -- -- 74
2017-08-14 20:00:00 25.2 18 Sur 37 Sur 0 -- -- 65
2017-08-14 19:00:00 26.4 24 Sur 43 Sur 0 -- -- 63
2017-08-14 18:00:00 27.3 28 Sur 46 Sur 0 -- -- 61
2017-08-14 17:00:00 28.6 28 Sur 42 Sur 0 -- -- 54
2017-08-14 16:00:00 28.7 26 Sur 43 Sur 0 -- -- 56
2017-08-14 15:00:00 30.2 19 Sudeste 32 Sudeste 0 -- -- 52
2017-08-14 14:00:00 30 19 Sur 31 Sur 0 -- -- 50
2017-08-14 13:00:00 30 15 Sur 26 Sudoeste 0 -- -- 37
2017-08-14 12:00:00 29.3 12 Sudoeste 22 Sudoeste 0 -- -- 46
2017-08-14 11:00:00 27.8 8 Sudoeste 15 Sur 0 -- -- 54
2017-08-14 10:00:00 26 7 Sudoeste 13 Sudoeste 0 -- -- 59
2017-08-14 09:00:00 23.5 3 Sudoeste 5 Sur 0 -- -- 67
2017-08-14 08:00:00 19.9 0 Calma 9 Nordeste 0 -- -- 74
2017-08-14 07:00:00 18.1 3 Norte 13 Nordeste 0 -- -- 78
2017-08-14 06:00:00 18 4 Nordeste 9 Nordeste 0 -- -- 78
2017-08-14 05:00:00 18.7 3 Norte 12 Nordeste 0 -- -- 75
2017-08-14 04:00:00 19.6 4 Nordeste 13 Nordeste 0 -- -- 71
2017-08-14 03:00:00 20.1 4 Norte 11 Nordeste 0 -- -- 71
2017-08-14 02:00:00 20.3 7 Nordeste 11 Nordeste 0 -- -- 70
2017-08-14 01:00:00 20.6 7 Norte 11 Norte 0 -- -- 71
2017-08-14 00:00:00 21 3 Norte 6 Norte 0 -- -- 70
2017-08-13 23:00:00 21.8 3 Nordeste 8 Norte 0 -- -- 67
2017-08-13 22:00:00 22.5 5 Norte 7 Norte 0 -- -- 65
2017-08-13 21:00:00 23.9 3 Sur 8 Sudeste 0 -- -- 61
2017-08-13 20:00:00 25.4 6 Sudeste 18 Sur 0 -- -- 56
2017-08-13 19:00:00 26.5 12 Sur 22 Sudeste 0 -- -- 53
2017-08-13 18:00:00 29.1 11 Sur 23 Sur 0 -- -- 44
2017-08-13 17:00:00 28.9 12 Sur 28 Sudoeste 0 -- -- 43
2017-08-13 16:00:00 28 15 Sur 27 Sudoeste 0 -- -- 44
2017-08-13 15:00:00 28.8 17 Sur 28 Sudoeste 0 -- -- 40
2017-08-13 14:00:00 29.1 16 Sur 28 Sur 0 -- -- 39
2017-08-13 13:00:00 28.9 19 Sur 27 Sur 0 -- -- 40
2017-08-13 12:00:00 29.8 7 Norte 22 Noroeste 0 -- -- 35
2017-08-13 11:00:00 27.7 6 Noroeste 20 Oeste 0 -- -- 40
2017-08-13 10:00:00 25.5 6 Sur 11 Sur 0 -- -- 44
2017-08-13 09:00:00 23.1 7 Sudoeste 11 Sur 0 -- -- 50
2017-08-13 08:00:00 19 3 Nordeste 11 Nordeste 0 -- -- 62
2017-08-13 07:00:00 17.8 6 Nordeste 14 Nordeste 0 -- -- 63
2017-08-13 06:00:00 17 2 Nordeste 8 Noroeste 0 -- -- 66
2017-08-13 05:00:00 18.1 6 Nordeste 12 Nordeste 0 -- -- 61
2017-08-13 04:00:00 18 0 Calma 6 Nordeste 0 -- -- 62
2017-08-13 03:00:00 17.7 5 Nordeste 11 Nordeste 0 -- -- 62
2017-08-13 02:00:00 18.2 0 Calma 6 Nordeste 0 -- -- 60
2017-08-13 01:00:00 20.5 0 Calma 20 Norte 0 -- -- 54
2017-08-13 00:00:00 23.1 15 Norte 31 Norte 0 -- -- 45
2017-08-12 23:00:00 20.9 4 Nordeste 15 Norte 0 -- -- 50
2017-08-12 22:00:00 21.3 4 Norte 9 Noroeste 0 -- -- 61
2017-08-12 21:00:00 23.8 4 Este 12 Sudeste 0 -- -- 55
2017-08-12 20:00:00 25.5 7 Sur 16 Sudeste 0 -- -- 49
2017-08-12 19:00:00 26.6 10 Sur 26 Sur 0 -- -- 39
2017-08-12 18:00:00 27.4 19 Sudoeste 31 Sur 0 -- -- 38
2017-08-12 17:00:00 29.1 14 Sur 26 Sudoeste 0 -- -- 34
2017-08-12 16:00:00 28.7 12 Sur 25 Sur 0 -- -- 35
2017-08-12 15:00:00 27.9 15 Sur 27 Sudoeste 0 -- -- 36
2017-08-12 14:00:00 28.3 5 Oeste 32 Nordeste 0 -- -- 33
2017-08-12 13:00:00 27.5 15 Norte 35 Norte 0 -- -- 32
2017-08-12 12:00:00 25.3 12 Nordeste 22 Noroeste 0 -- -- 37
2017-08-12 11:00:00 23.3 15 Noroeste 26 Norte 0 -- -- 44
2017-08-12 10:00:00 22.3 14 Norte 30 Norte 0 -- -- 45
2017-08-12 09:00:00 20.6 8 Nordeste 23 Noroeste 0 -- -- 48
2017-08-12 08:00:00 19.3 8 Norte 32 Norte 0 -- -- 51
2017-08-12 07:00:00 18.7 17 Norte 35 Norte 0 -- -- 51
2017-08-12 06:00:00 18.9 19 Norte 43 Norte 0 -- -- 52
2017-08-12 05:00:00 19.4 22 Norte 44 Norte 0 -- -- 53
2017-08-12 04:00:00 19.9 19 Norte 40 Norte 0 -- -- 50
2017-08-12 03:00:00 19.9 24 Norte 46 Nordeste 0 -- -- 51
2017-08-12 02:00:00 19.5 11 Noroeste 26 Norte 0 -- -- 54
2017-08-12 01:00:00 19.8 14 Noroeste 35 Noroeste 0 -- -- 52
2017-08-12 00:00:00 20.3 18 Noroeste 46 Norte 0 -- -- 49
2017-08-11 23:00:00 20.6 18 Norte 45 Noroeste 0 -- -- 48
2017-08-11 22:00:00 21 18 Norte 32 Norte 0 -- -- 45
2017-08-11 21:00:00 21.6 10 Norte 44 Norte 0 -- -- 44
2017-08-11 20:00:00 22.6 23 Norte 45 Norte 0 -- -- 43
2017-08-11 19:00:00 22.6 21 Norte 50 Norte 0 -- -- 43
2017-08-11 18:00:00 23.8 26 Norte 50 Norte 0 -- -- 41
2017-08-11 17:00:00 23.3 22 Norte 44 Nordeste 0 -- -- 40
2017-08-11 16:00:00 24 24 Norte 49 Norte 0 -- -- 36
2017-08-11 15:00:00 25 21 Norte 45 Norte 0 -- -- 34
2017-08-11 14:00:00 25 27 Norte 45 Norte 0 -- -- 33
2017-08-11 13:00:00 22.9 19 Norte 45 Norte 0 -- -- 37
2017-08-11 12:00:00 24.5 24 Norte 44 Noroeste 0 -- -- 34
2017-08-11 11:00:00 22.1 16 Noroeste 37 Noroeste 0 -- -- 41
2017-08-11 10:00:00 20.5 13 Noroeste 37 Noroeste 0 -- -- 45
2017-08-11 09:00:00 18.7 10 Norte 36 Oeste 0 -- -- 47
2017-08-11 08:00:00 18.6 18 Noroeste 44 Noroeste 0 -- -- 42
2017-08-11 07:00:00 18.2 11 Sudoeste 34 Sur 0 -- -- 48
2017-08-11 06:00:00 18.4 11 Norte 46 Norte 0 -- -- 46
2017-08-11 05:00:00 18 23 Norte 62 Norte 0 -- -- 52
2017-08-11 04:00:00 18.4 33 Norte 57 Norte 0 -- -- 50
2017-08-11 03:00:00 18.6 31 Norte 59 Norte 0 -- -- 50
2017-08-11 02:00:00 19.3 31 Norte 62 Norte 0 -- -- 50
2017-08-11 01:00:00 19.2 18 Noroeste 34 Noroeste 0 -- -- 47
2017-08-11 00:00:00 18.1 2 Nordeste 16 Noroeste 0 -- -- 56
2017-08-10 23:00:00 19.3 9 Noroeste 39 Noroeste 0 -- -- 62
2017-08-10 22:00:00 20.9 25 Noroeste 48 Noroeste 0 -- -- 43
2017-08-10 21:00:00 20.8 11 Noroeste 30 Noroeste 0 -- -- 46
2017-08-10 20:00:00 21.9 9 Nordeste 27 Nordeste 0 -- -- 45
2017-08-10 19:00:00 22.6 9 Sur 26 Sur 0 -- -- 56
2017-08-10 18:00:00 22.7 15 Sur 27 Sur 0 -- -- 54
2017-08-10 17:00:00 24.9 13 Noroeste 41 Norte 0 -- -- 40
2017-08-10 16:00:00 26.5 24 Norte 44 Nordeste 0 -- -- 32
2017-08-10 15:00:00 26.1 23 Norte 44 Noroeste 0 -- -- 33
2017-08-10 14:00:00 26.6 23 Norte 41 Noroeste 0 -- -- 32
2017-08-10 13:00:00 26.1 18 Norte 41 Nordeste 0 -- -- 33
2017-08-10 12:00:00 24.5 25 Norte 40 Norte 0 -- -- 35
2017-08-10 11:00:00 23.3 17 Norte 38 Norte 0 -- -- 37
2017-08-10 10:00:00 20.8 11 Noroeste 55 Norte 0 -- -- 40
2017-08-10 09:00:00 20 30 Norte 51 Norte 0 -- -- 40
2017-08-10 08:00:00 18.8 13 Nordeste 43 Noroeste 0 -- -- 42
2017-08-10 07:00:00 17.5 8 Noroeste 37 Norte 0 -- -- 48
2017-08-10 06:00:00 17.7 11 Norte 46 Norte 0 -- -- 47
2017-08-10 05:00:00 17.9 31 Norte 66 Norte 0 -- -- 46
2017-08-10 04:00:00 18 35 Norte 70 Norte 0 -- -- 49
2017-08-10 03:00:00 18.6 39 Norte 69 Norte 0.2 -- -- 46
2017-08-10 02:00:00 18.9 35 Norte 68 Norte 0 -- -- 48
2017-08-10 01:00:00 18.9 26 Norte 60 Norte 0.2 -- -- 47
2017-08-10 00:00:00 18.2 28 Norte 67 Norte 0.2 -- -- 52
2017-08-09 23:00:00 18.9 36 Norte 68 Norte 0 -- -- 48
2017-08-09 22:00:00 18.5 35 Norte 60 Norte 0 -- -- 52
2017-08-09 21:00:00 16.5 34 Norte 75 Norte 0.2 -- -- 66
2017-08-09 20:00:00 19.1 35 Norte 76 Norte 0 -- -- 50
2017-08-09 19:00:00 19.9 33 Norte 56 Norte 0 -- -- 50
2017-08-09 18:00:00 21.7 26 Norte 60 Noroeste 0 -- -- 48
2017-08-09 17:00:00 22.9 24 Norte 48 Noroeste 0 -- -- 44
2017-08-09 16:00:00 25.8 27 Norte 48 Norte 0 -- -- 37
2017-08-09 15:00:00 27.3 20 Norte 38 Nordeste 0 -- -- 36
2017-08-09 14:00:00 27.2 20 Este 34 Este 0 -- -- 38
2017-08-09 13:00:00 26.3 10 Nordeste 23 Este 0 -- -- 38
2017-08-09 12:00:00 25.9 13 Sudeste 25 Noroeste 0 -- -- 38
2017-08-09 11:00:00 24.9 6 Oeste 23 Nordeste 0 -- -- 38
2017-08-09 10:00:00 23.1 6 Oeste 13 Sur 0 -- -- 44
2017-08-09 09:00:00 20.4 3 Sudoeste 7 Noroeste 0 -- -- 54
2017-08-09 08:00:00 16.6 2 Este 10 Norte 0 -- -- 71
2017-08-09 07:00:00 14.3 5 Norte 8 Norte 0 -- -- 76
2017-08-09 06:00:00 15.8 2 Sudeste 7 Norte 0 -- -- 72
2017-08-09 05:00:00 16.7 0 Calma 9 Oeste 0 -- -- 68
2017-08-09 04:00:00 18.2 3 Sudeste 15 Sur 0 -- -- 62
2017-08-09 03:00:00 19.8 4 Sudoeste 34 Norte 0 -- -- 57
2017-08-09 02:00:00 21 17 Norte 47 Norte 0 -- -- 54
2017-08-09 01:00:00 21.3 26 Norte 48 Norte 0 -- -- 52
2017-08-09 00:00:00 22 21 Norte 51 Norte 0 -- -- 48
2017-08-08 23:00:00 22.2 31 Norte 64 Norte 0 -- -- 46
2017-08-08 22:00:00 22.6 32 Norte 65 Norte 0 -- -- 43
2017-08-08 21:00:00 22.5 40 Norte 68 Noroeste 0 -- -- 43
2017-08-08 20:00:00 22.9 34 Norte 71 Norte 0 -- -- 42
2017-08-08 19:00:00 23.1 37 Norte 66 Noroeste 0 -- -- 43
2017-08-08 18:00:00 23.1 26 Norte 69 Norte 0 -- -- 48
2017-08-08 17:00:00 24 28 Norte 51 Norte 0 -- -- 42
2017-08-08 16:00:00 23.7 12 Norte 37 Norte 0 -- -- 49
2017-08-08 15:00:00 23.6 5 Sudoeste 18 Norte 0 -- -- 56
2017-08-08 14:00:00 21.7 5 Sudoeste 12 Sudeste 0 -- -- 71
2017-08-08 13:00:00 21 5 Sur 22 Nordeste 0.8 -- -- 75
2017-08-08 12:00:00 22.9 6 Oeste 25 Norte 0 -- -- 56
2017-08-08 11:00:00 23 4 Nordeste 12 Norte 0 -- -- 54
2017-08-08 10:00:00 23 6 Sudoeste 8 Oeste 0 -- -- 68
2017-08-08 09:00:00 22.5 4 Noroeste 27 Nordeste 0 -- -- 71
2017-08-08 08:00:00 21.8 12 Nordeste 19 Nordeste 0 -- -- 71
2017-08-08 07:00:00 22 6 Nordeste 18 Nordeste 0.8 -- -- 81
2017-08-08 06:00:00 23.9 6 Nordeste 20 Nordeste 0 -- -- 68
2017-08-08 05:00:00 23.8 4 Nordeste 10 Nordeste 0 -- -- 79
2017-08-08 04:00:00 23.7 5 Norte 13 Nordeste 0 -- -- 79
2017-08-08 03:00:00 23 8 Nordeste 13 Nordeste 0 -- -- 79
2017-08-08 02:00:00 22.8 3 Nordeste 12 Nordeste 0 -- -- 77
2017-08-08 01:00:00 23.9 4 Nordeste 11 Sudeste 0 -- -- 70
2017-08-08 00:00:00 24.8 8 Sudeste 15 Sur 0 -- -- 65
2017-08-07 23:00:00 25.8 4 Este 13 Sudeste 0 -- -- 57
2017-08-07 22:00:00 27.3 5 Sudeste 16 Sudeste 0 -- -- 56
2017-08-07 21:00:00 29 6 Sur 25 Sudeste 0 -- -- 55
2017-08-07 20:00:00 30.6 13 Sur 26 Sur 0 -- -- 53
2017-08-07 19:00:00 31.7 18 Sur 31 Sur 0 -- -- 53
2017-08-07 18:00:00 30.1 16 Sudeste 40 Sur 0 -- -- 58
2017-08-07 17:00:00 29.4 22 Sur 36 Sur 0 -- -- 55
2017-08-07 16:00:00 28.7 18 Sur 30 Sur 0 -- -- 52
2017-08-07 15:00:00 28.4 19 Sur 35 Sur 0 -- -- 46
2017-08-07 14:00:00 28.7 18 Sur 35 Sur 0 -- -- 39
2017-08-07 13:00:00 28.3 18 Sur 34 Sur 0 -- -- 39
2017-08-07 12:00:00 28.4 17 Sur 29 Sur 0 -- -- 42
2017-08-07 11:00:00 27.9 13 Sur 27 Sur 0 -- -- 47
2017-08-07 10:00:00 26.9 10 Sur 19 Sur 0 -- -- 53
2017-08-07 09:00:00 25.7 5 Sur 12 Nordeste 0 -- -- 53
2017-08-07 08:00:00 22.3 9 Nordeste 15 Nordeste 0 -- -- 55
2017-08-07 07:00:00 21.1 3 Nordeste 14 Nordeste 0 -- -- 58
2017-08-07 06:00:00 22.2 10 Nordeste 15 Nordeste 0 -- -- 54
2017-08-07 05:00:00 23.5 5 Nordeste 13 Nordeste 0 -- -- 52
2017-08-07 04:00:00 24.4 6 Nordeste 12 Nordeste 0 -- -- 48
2017-08-07 03:00:00 23.9 0 Calma 6 Este 0 -- -- 55
2017-08-07 02:00:00 24.4 0 Calma 7 Nordeste 0 -- -- 55
2017-08-07 01:00:00 24.5 5 Este 8 Nordeste 0 -- -- 50
2017-08-07 00:00:00 24.7 0 Calma 16 Este 0 -- -- 51
2017-08-06 23:00:00 25.6 2 Sudeste 35 Noroeste 0 -- -- 45
2017-08-06 22:00:00 26.3 14 Norte 33 Norte 0 -- -- 41
2017-08-06 21:00:00 27 14 Norte 36 Noroeste 0 -- -- 40
2017-08-06 20:00:00 29 15 Norte 30 Norte 0 -- -- 38
2017-08-06 19:00:00 31.3 14 Norte 24 Noroeste 0 -- -- 36
2017-08-06 18:00:00 32.3 11 Noroeste 30 Noroeste 0 -- -- 36
2017-08-06 17:00:00 32.3 17 Noroeste 31 Noroeste 0 -- -- 35
2017-08-06 16:00:00 32 15 Norte 33 Norte 0 -- -- 36
2017-08-06 15:00:00 31.3 21 Norte 36 Noroeste 0 -- -- 36
2017-08-06 14:00:00 30.7 16 Norte 32 Noroeste 0 -- -- 39
2017-08-06 13:00:00 29.5 16 Norte 35 Norte 0 -- -- 42
2017-08-06 12:00:00 26.4 5 Sudoeste 16 Noroeste 0 -- -- 53
2017-08-06 11:00:00 22 10 Este 28 Nordeste 0.2 -- -- 72
2017-08-06 10:00:00 21.6 13 Nordeste 27 Nordeste 0 -- -- 78
2017-08-06 09:00:00 21.7 5 Norte 27 Noroeste 2.4 -- -- 86
2017-08-06 08:00:00 24.2 18 Nordeste 33 Nordeste 0.2 -- -- 63
2017-08-06 07:00:00 24 22 Norte 54 Noroeste 0 -- -- 60
2017-08-06 06:00:00 27.1 8 Nordeste 37 Noroeste 0 -- -- 51
2017-08-06 05:00:00 26 10 Nordeste 29 Norte 0 -- -- 51
2017-08-06 04:00:00 24.2 3 Nordeste 11 Este 0 -- -- 61
2017-08-06 03:00:00 25.6 6 Sudeste 15 Sudeste 0 -- -- 57
2017-08-06 02:00:00 25.4 4 Este 12 Este 0 -- -- 61
2017-08-06 01:00:00 27.1 5 Sudeste 35 Norte 0 -- -- 55
2017-08-06 00:00:00 27.9 12 Norte 37 Norte 0 -- -- 53
2017-08-05 23:00:00 28.1 15 Norte 35 Norte 0 -- -- 53
2017-08-05 22:00:00 27.8 18 Norte 39 Noroeste 0 -- -- 55
2017-08-05 21:00:00 28.2 13 Norte 46 Norte 0 -- -- 55
2017-08-05 20:00:00 29.4 21 Norte 36 Norte 0 -- -- 53
2017-08-05 19:00:00 32.3 16 Norte 39 Norte 0 -- -- 47
2017-08-05 18:00:00 34.3 16 Noroeste 36 Oeste 0 -- -- 43
2017-08-05 17:00:00 35.1 10 Este 23 Sur 0 -- -- 41
2017-08-05 16:00:00 35.7 13 Sur 27 Sudeste 0 -- -- 39
2017-08-05 15:00:00 35.4 15 Sudeste 29 Sudeste 0 -- -- 40
2017-08-05 14:00:00 35.6 10 Sudeste 24 Sudeste 0 -- -- 39
2017-08-05 13:00:00 34.9 11 Sur 22 Sur 0 -- -- 40
2017-08-05 12:00:00 34.1 6 Sur 18 Sudoeste 0 -- -- 40
2017-08-05 11:00:00 32.8 6 Sur 14 Sur 0 -- -- 43
2017-08-05 10:00:00 30.9 5 Oeste 9 Oeste 0 -- -- 47
2017-08-05 09:00:00 28.9 3 Oeste 8 Nordeste 0 -- -- 54
2017-08-05 08:00:00 25.6 4 Nordeste 12 Nordeste 0 -- -- 64
2017-08-05 07:00:00 23.9 5 Nordeste 11 Nordeste 0 -- -- 67
2017-08-05 06:00:00 24.1 5 Nordeste 10 Nordeste 0 -- -- 66
2017-08-05 05:00:00 24.5 6 Nordeste 11 Nordeste 0 -- -- 64
2017-08-05 04:00:00 24.9 0 Calma 5 Norte 0 -- -- 64
2017-08-05 03:00:00 25.2 2 Nordeste 10 Nordeste 0 -- -- 62
2017-08-05 02:00:00 26.1 3 Norte 8 Norte 0 -- -- 58
2017-08-05 01:00:00 26.7 5 Este 11 Sur 0 -- -- 56
2017-08-05 00:00:00 26.6 4 Sudeste 9 Norte 0 -- -- 57
2017-08-04 23:00:00 27.1 5 Nordeste 9 Este 0 -- -- 57
2017-08-04 22:00:00 28.5 2 Norte 9 Sudeste 0 -- -- 54
2017-08-04 21:00:00 30.4 5 Sur 15 Sur 0 -- -- 50
2017-08-04 20:00:00 32.7 13 Sur 19 Sudoeste 0 -- -- 44
2017-08-04 19:00:00 34.9 13 Sudoeste 25 Sudoeste 0 -- -- 39
2017-08-04 18:00:00 36.8 12 Sudoeste 23 Sur 0 -- -- 34
2017-08-04 17:00:00 36.8 12 Sur 25 Sur 0 -- -- 34
2017-08-04 16:00:00 37.3 10 Este 26 Sudeste 0 -- -- 34
2017-08-04 15:00:00 36.2 13 Sudeste 26 Sur 0 -- -- 37
2017-08-04 14:00:00 36.3 13 Sur 26 Sur 0 -- -- 37
2017-08-04 13:00:00 36.1 12 Sur 27 Sudoeste 0 -- -- 37
2017-08-04 12:00:00 35.1 6 Sudeste 15 Este 0 -- -- 38
2017-08-04 11:00:00 33.8 5 Sudoeste 15 Sudoeste 0 -- -- 40
2017-08-04 10:00:00 31.1 6 Sur 8 Sur 0 -- -- 48
2017-08-04 09:00:00 28 0 Calma 4 Noroeste 0 -- -- 58
2017-08-04 08:00:00 24.1 0 Calma 5 Norte 0 -- -- 69
2017-08-04 07:00:00 22.9 4 Nordeste 8 Nordeste 0 -- -- 70
2017-08-04 06:00:00 23.2 4 Nordeste 8 Nordeste 0 -- -- 69
2017-08-04 05:00:00 23.5 0 Calma 6 Norte 0 -- -- 67
2017-08-04 04:00:00 23.8 3 Norte 8 Nordeste 0 -- -- 66
2017-08-04 03:00:00 24.2 3 Nordeste 8 Nordeste 0 -- -- 66
2017-08-04 02:00:00 24.3 0 Calma 5 Nordeste 0 -- -- 66
2017-08-04 01:00:00 25.3 0 Calma 5 Sudoeste 0 -- -- 66
2017-08-04 00:00:00 26.3 0 Calma 14 Nordeste 0 -- -- 63
2017-08-03 23:00:00 26.9 3 Norte 10 Nordeste 0 -- -- 63
2017-08-03 22:00:00 27.8 4 Nordeste 8 Nordeste 0 -- -- 61
2017-08-03 21:00:00 29.6 3 Norte 6 Norte 0 -- -- 61
2017-08-03 20:00:00 31.1 4 Sudoeste 13 Oeste 0 -- -- 59
2017-08-03 19:00:00 33.1 7 Sudoeste 22 Sudoeste 0 -- -- 50
2017-08-03 18:00:00 33.7 10 Sudoeste 21 Sur 0 -- -- 43
2017-08-03 17:00:00 34.2 12 Sudeste 23 Sur 0 -- -- 43
2017-08-03 16:00:00 33.8 13 Sur 25 Sur 0 -- -- 46
2017-08-03 15:00:00 33.5 15 Sur 26 Sur 0 -- -- 48
2017-08-03 14:00:00 33.5 14 Sur 24 Sur 0 -- -- 49
2017-08-03 13:00:00 33.6 10 Nordeste 23 Norte 0 -- -- 51
2017-08-03 12:00:00 32.6 7 Noroeste 21 Nordeste 0 -- -- 53
2017-08-03 11:00:00 29.9 3 Sudeste 17 Sur 0 -- -- 62
2017-08-03 10:00:00 28.8 6 Sudoeste 12 Sur 0 -- -- 65
2017-08-03 09:00:00 26.1 5 Sur 14 Nordeste 0 -- -- 74
2017-08-03 08:00:00 24.3 11 Nordeste 17 Nordeste 0 -- -- 79
2017-08-03 07:00:00 22.7 8 Nordeste 21 Nordeste 0 -- -- 81
2017-08-03 06:00:00 22.2 9 Nordeste 13 Nordeste 0 -- -- 87
2017-08-03 05:00:00 22.6 8 Nordeste 11 Nordeste 0 -- -- 87
2017-08-03 04:00:00 22.3 0 Calma 7 Este 0 -- -- 84
2017-08-03 03:00:00 22.8 3 Norte 5 Nordeste 0 -- -- 76
2017-08-03 02:00:00 24.8 3 Nordeste 13 Nordeste 0 -- -- 68
2017-08-03 01:00:00 24.8 4 Nordeste 6 Nordeste 0 -- -- 68
2017-08-03 00:00:00 24.9 4 Nordeste 8 Norte 0 -- -- 70
2017-08-02 23:00:00 25.9 0 Calma 8 Norte 0 -- -- 72
2017-08-02 22:00:00 27.7 0 Calma 6 Oeste 0 -- -- 66
2017-08-02 21:00:00 29.8 3 Sudoeste 9 Este 0 -- -- 61
2017-08-02 20:00:00 31 3 Sur 10 Sudoeste 0 -- -- 59
2017-08-02 19:00:00 31.5 8 Sur 15 Sur 0 -- -- 58
2017-08-02 18:00:00 31.8 7 Sudeste 14 Sur 0 -- -- 59
2017-08-02 17:00:00 30.8 7 Sur 22 Sudeste 0 -- -- 61
2017-08-02 16:00:00 29.2 14 Sur 25 Sur 0 -- -- 62
2017-08-02 15:00:00 31.3 17 Sur 27 Sur 0 -- -- 55
2017-08-02 14:00:00 32.7 12 Sudoeste 23 Sur 0 -- -- 48
2017-08-02 13:00:00 32.4 9 Sur 17 Sur 0 -- -- 49
2017-08-02 12:00:00 31.1 5 Sudoeste 18 Sur 0 -- -- 50
2017-08-02 11:00:00 29.5 11 Sudoeste 19 Sur 0 -- -- 55
2017-08-02 10:00:00 27.5 4 Sur 10 Sur 0 -- -- 59
2017-08-02 09:00:00 25.6 7 Sur 15 Nordeste 0 -- -- 65
2017-08-02 08:00:00 22.8 7 Nordeste 14 Nordeste 0 -- -- 72
2017-08-02 07:00:00 20.2 3 Nordeste 10 Nordeste 0 -- -- 79
2017-08-02 06:00:00 20.2 2 Nordeste 8 Norte 0 -- -- 80
2017-08-02 05:00:00 21 5 Nordeste 12 Nordeste 0 -- -- 79
2017-08-02 04:00:00 22.6 10 Nordeste 15 Nordeste 0 -- -- 71
2017-08-02 03:00:00 22 4 Norte 17 Nordeste 0 -- -- 73
2017-08-02 02:00:00 21.8 8 Norte 13 Nordeste 0 -- -- 75
2017-08-02 01:00:00 23.1 9 Nordeste 17 Nordeste 0 -- -- 72
2017-08-02 00:00:00 24 10 Nordeste 18 Nordeste 0 -- -- 71
2017-08-01 23:00:00 23.9 8 Norte 14 Oeste 0 -- -- 73
2017-08-01 22:00:00 24.7 7 Oeste 9 Oeste 0 -- -- 78
2017-08-01 21:00:00 26.5 8 Sur 14 Sur 0 -- -- 71
2017-08-01 20:00:00 28.3 7 Sudoeste 13 Sur 0 -- -- 65
2017-08-01 19:00:00 28 8 Sur 29 Sur 0 -- -- 65
2017-08-01 18:00:00 31.6 11 Sudoeste 40 Oeste 0 -- -- 38
2017-08-01 17:00:00 30.4 5 Sudeste 25 Sur 0 -- -- 60
2017-08-01 16:00:00 31.9 8 Sur 31 Sudeste 0 -- -- 55
2017-08-01 15:00:00 31.6 10 Sur 27 Sur 0 -- -- 56
2017-08-01 14:00:00 28.8 14 Sur 27 Sur 0 -- -- 63
2017-08-01 13:00:00 30 5 Sudoeste 22 Sudoeste 0 -- -- 57
2017-08-01 12:00:00 29.1 11 Sudoeste 18 Sudoeste 0 -- -- 62
2017-08-01 11:00:00 28.2 7 Sudoeste 15 Sur 0 -- -- 63
2017-08-01 10:00:00 25.8 6 Nordeste 12 Nordeste 0 -- -- 71
2017-08-01 09:00:00 24.6 2 Nordeste 9 Este 0 -- -- 77
2017-08-01 08:00:00 23.9 5 Nordeste 12 Nordeste 0 -- -- 82
2017-08-01 07:00:00 23.3 5 Nordeste 13 Nordeste 0 -- -- 84
2017-08-01 06:00:00 22.7 4 Norte 11 Nordeste 0 -- -- 87
2017-08-01 05:00:00 22.7 3 Nordeste 14 Nordeste 0 -- -- 87
2017-08-01 04:00:00 22.4 9 Nordeste 13 Nordeste 0 -- -- 86
2017-08-01 03:00:00 22.5 5 Nordeste 14 Nordeste 0 -- -- 86
2017-08-01 02:00:00 22.6 9 Nordeste 15 Nordeste 0 -- -- 85
2017-08-01 01:00:00 22.3 6 Nordeste 12 Nordeste 0 -- -- 87
2017-08-01 00:00:00 22.3 0 Calma 5 Nordeste 0 -- -- 87
2017-07-31 23:00:00 22.8 0 Calma 5 Nordeste 0 -- -- 86
2017-07-31 22:00:00 23.8 0 Calma 9 Sur 0 -- -- 84
2017-07-31 21:00:00 24.9 5 Sur 16 Sudoeste 0 -- -- 80
2017-07-31 20:00:00 26.7 11 Sudoeste 19 Sur 0 -- -- 72
2017-07-31 19:00:00 28.4 14 Sudoeste 25 Sur 0 -- -- 62
2017-07-31 18:00:00 30.2 17 Sur 27 Sudoeste 0 -- -- 56
2017-07-31 17:00:00 32.4 13 Sur 24 Sudeste 0 -- -- 43
2017-07-31 16:00:00 32.1 11 Sur 25 Sudeste 0 -- -- 48
2017-07-31 15:00:00 31.3 12 Sur 25 Sur 0 -- -- 53
2017-07-31 14:00:00 31.5 12 Sur 23 Sur 0 -- -- 53
2017-07-31 13:00:00 30.1 10 Sudoeste 21 Sur 0 -- -- 55
2017-07-31 12:00:00 28.9 9 Sur 20 Sur 0 -- -- 61
2017-07-31 11:00:00 27.6 7 Sudoeste 14 Sudoeste 0 -- -- 61
2017-07-31 10:00:00 25.3 4 Sudoeste 9 Sur 0 -- -- 73
2017-07-31 09:00:00 23.4 3 Sudoeste 8 Sudoeste 0 -- -- 81
2017-07-31 08:00:00 20.8 3 Este 10 Este 0 -- -- 90
2017-07-31 07:00:00 20 2 Norte 12 Nordeste 0 -- -- 92
2017-07-31 06:00:00 20.5 7 Norte 11 Norte 0 -- -- 93
2017-07-31 05:00:00 19.9 3 Nordeste 9 Nordeste 0 -- -- 92
2017-07-31 04:00:00 19.9 8 Nordeste 12 Nordeste 0 -- -- 90
2017-07-31 03:00:00 20.5 0 Calma 11 Nordeste 0 -- -- 90
2017-07-31 02:00:00 21.4 4 Este 17 Nordeste 0 -- -- 89
2017-07-31 01:00:00 22.5 12 Nordeste 18 Norte 0 -- -- 87
2017-07-31 00:00:00 22.8 12 Nordeste 17 Nordeste 0 -- -- 85
2017-07-30 23:00:00 23 10 Nordeste 19 Nordeste 0 -- -- 83
2017-07-30 22:00:00 23.8 11 Nordeste 18 Nordeste 0 -- -- 79
2017-07-30 21:00:00 25.3 2 Este 9 Sudeste 0 -- -- 75
2017-07-30 20:00:00 26 5 Sur 13 Sur 0 -- -- 72
2017-07-30 19:00:00 26.3 11 Sur 21 Sudoeste 0 -- -- 72
2017-07-30 18:00:00 29.5 14 Sur 25 Sur 0 -- -- 50
2017-07-30 17:00:00 30.2 13 Sur 22 Sur 0 -- -- 51
2017-07-30 16:00:00 30.4 13 Sur 24 Sur 0 -- -- 56
2017-07-30 15:00:00 29.9 11 Sur 25 Sur 0 -- -- 56
2017-07-30 14:00:00 29.6 13 Sur 22 Sudeste 0 -- -- 56
2017-07-30 13:00:00 28.4 10 Sur 20 Sur 0 -- -- 62
2017-07-30 12:00:00 27.8 10 Sur 20 Sur 0 -- -- 64
2017-07-30 11:00:00 26.7 9 Sur 17 Sur 0 -- -- 69
2017-07-30 10:00:00 25.8 6 Sudoeste 9 Sudoeste 0 -- -- 72
2017-07-30 09:00:00 24.4 2 Oeste 5 Sudoeste 0 -- -- 77
2017-07-30 08:00:00 22.1 2 Norte 6 Norte 0 -- -- 84
2017-07-30 07:00:00 20.6 0 Calma 9 Nordeste 0 -- -- 87
2017-07-30 06:00:00 21.2 2 Sur 13 Nordeste 0 -- -- 85
2017-07-30 05:00:00 21.3 5 Nordeste 15 Nordeste 0 -- -- 84
2017-07-30 04:00:00 21 8 Nordeste 11 Nordeste 0 -- -- 85
2017-07-30 03:00:00 20.9 3 Nordeste 7 Nordeste 0 -- -- 85
2017-07-30 02:00:00 21.4 2 Norte 12 Nordeste 0 -- -- 83
2017-07-30 01:00:00 22.2 7 Norte 11 Nordeste 0 -- -- 79
2017-07-30 00:00:00 22.8 5 Nordeste 14 Nordeste 0 -- -- 80
2017-07-29 23:00:00 23.7 6 Norte 9 Norte 0 -- -- 74
2017-07-29 22:00:00 25.1 3 Norte 7 Noroeste 0 -- -- 70
2017-07-29 21:00:00 26.7 5 Sudoeste 12 Sur 0 -- -- 66
2017-07-29 20:00:00 27.7 10 Sur 22 Sur 0 -- -- 62
2017-07-29 19:00:00 28.6 11 Sur 22 Sudeste 0 -- -- 60
2017-07-29 18:00:00 29.1 11 Sur 30 Sudeste 0 -- -- 57
2017-07-29 17:00:00 28.8 14 Sur 34 Sudeste 0 -- -- 54
2017-07-29 16:00:00 29.8 20 Sudeste 39 Sur 0 -- -- 51
2017-07-29 15:00:00 29.9 21 Sur 37 Sur 0 -- -- 52
2017-07-29 14:00:00 29.9 20 Sur 31 Sur 0 -- -- 50
2017-07-29 13:00:00 29.8 15 Sur 27 Sudeste 0 -- -- 54
2017-07-29 12:00:00 28.8 8 Sur 22 Sudoeste 0 -- -- 56
2017-07-29 11:00:00 27.6 11 Sur 18 Sur 0 -- -- 59
2017-07-29 10:00:00 26.3 8 Sur 14 Sudoeste 0 -- -- 64
2017-07-29 09:00:00 25 0 Calma 5 Sudoeste 0 -- -- 69
2017-07-29 08:00:00 21.8 5 Nordeste 8 Nordeste 0 -- -- 78
2017-07-29 07:00:00 19.7 0 Calma 10 Nordeste 0 -- -- 84
2017-07-29 06:00:00 19.9 6 Nordeste 13 Nordeste 0 -- -- 82
2017-07-29 05:00:00 20.1 9 Nordeste 14 Nordeste 0 -- -- 81
2017-07-29 04:00:00 20.2 4 Norte 13 Nordeste 0 -- -- 81
2017-07-29 03:00:00 20.5 7 Nordeste 13 Nordeste 0 -- -- 80
2017-07-29 02:00:00 20.8 8 Nordeste 13 Nordeste 0 -- -- 80
2017-07-29 01:00:00 21.3 5 Norte 16 Nordeste 0 -- -- 78
2017-07-29 00:00:00 21.4 6 Nordeste 12 Nordeste 0 -- -- 79
2017-07-28 23:00:00 22.3 4 Nordeste 7 Nordeste 0 -- -- 75
2017-07-28 22:00:00 24.1 0 Calma 7 Sudoeste 0 -- -- 69
2017-07-28 21:00:00 25.6 4 Sur 11 Sur 0 -- -- 65
2017-07-28 20:00:00 27 8 Sudoeste 17 Sudoeste 0 -- -- 60
2017-07-28 19:00:00 27.9 9 Sur 22 Sur 0 -- -- 57
2017-07-28 18:00:00 29 14 Sur 24 Sur 0 -- -- 53
2017-07-28 17:00:00 29.3 14 Sur 26 Sur 0 -- -- 52
2017-07-28 16:00:00 30.1 11 Sur 21 Sudeste 0 -- -- 50
2017-07-28 15:00:00 30.1 13 Sudeste 23 Sudeste 0 -- -- 52
2017-07-28 14:00:00 29.7 7 Sur 18 Sudeste 0 -- -- 54
2017-07-28 13:00:00 29.7 9 Sur 19 Sur 0 -- -- 52
2017-07-28 12:00:00 29.5 12 Sur 19 Sur 0 -- -- 52
2017-07-28 11:00:00 28.5 5 Sur 14 Sur 0 -- -- 54
2017-07-28 10:00:00 27.1 7 Sur 12 Sur 0 -- -- 57
2017-07-28 09:00:00 25.2 4 Sur 7 Sur 0 -- -- 62
2017-07-28 08:00:00 22.5 0 Calma 7 Este 0 -- -- 72
2017-07-28 07:00:00 20.7 3 Sur 17 Nordeste 0 -- -- 75
2017-07-28 06:00:00 21.3 8 Nordeste 18 Nordeste 0 -- -- 72
2017-07-28 05:00:00 20.7 4 Nordeste 9 Nordeste 0 -- -- 72
2017-07-28 04:00:00 21.2 4 Norte 14 Nordeste 0 -- -- 69
2017-07-28 03:00:00 22.2 7 Nordeste 12 Nordeste 0 -- -- 65
2017-07-28 02:00:00 22.3 8 Este 11 Este 0 -- -- 64
2017-07-28 01:00:00 22.1 0 Calma 5 Norte 0 -- -- 65
2017-07-28 00:00:00 23.4 0 Calma 8 Nordeste 0 -- -- 60
2017-07-27 23:00:00 24.7 2 Norte 10 Nordeste 0 -- -- 53
2017-07-27 22:00:00 25.7 6 Nordeste 13 Nordeste 0 -- -- 55
2017-07-27 21:00:00 28.4 3 Noroeste 5 Sudoeste 0 -- -- 51
2017-07-27 20:00:00 30 0 Calma 12 Sudoeste 0 -- -- 43
2017-07-27 19:00:00 29.7 8 Sudoeste 14 Sur 0 -- -- 42
2017-07-27 18:00:00 29.3 8 Sur 18 Sur 0 -- -- 51
2017-07-27 17:00:00 29.1 11 Sur 21 Sur 0 -- -- 50
2017-07-27 16:00:00 29 13 Sur 27 Sur 0 -- -- 48
2017-07-27 15:00:00 30.2 14 Sur 26 Sudeste 0 -- -- 45
2017-07-27 14:00:00 29.3 13 Sudeste 25 Sur 0 -- -- 46
2017-07-27 13:00:00 28.8 11 Sur 23 Sur 0 -- -- 48
2017-07-27 12:00:00 27.9 9 Sudoeste 32 Sudoeste 0 -- -- 51
2017-07-27 11:00:00 26.3 7 Sudoeste 14 Sudoeste 0 -- -- 54
2017-07-27 10:00:00 24.8 5 Sudoeste 13 Sudoeste 0 -- -- 59
2017-07-27 09:00:00 23.4 5 Sur 7 Sur 0 -- -- 63
2017-07-27 08:00:00 21 7 Nordeste 15 Nordeste 0 -- -- 69
2017-07-27 07:00:00 17.6 4 Norte 7 Norte 0 -- -- 79
2017-07-27 06:00:00 17.4 4 Nordeste 8 Norte 0 -- -- 78
2017-07-27 05:00:00 18.6 4 Norte 9 Norte 0 -- -- 73
2017-07-27 04:00:00 19.7 0 Calma 10 Sudoeste 0 -- -- 70
2017-07-27 03:00:00 21.3 6 Nordeste 24 Nordeste 0 -- -- 64
2017-07-27 02:00:00 21.5 10 Norte 23 Noroeste 0 -- -- 63
2017-07-27 01:00:00 23 9 Oeste 26 Noroeste 0 -- -- 57
2017-07-27 00:00:00 23.5 5 Nordeste 24 Sudeste 0 -- -- 54
2017-07-26 23:00:00 24.2 11 Sudeste 48 Norte 0 -- -- 52
2017-07-26 22:00:00 24.8 16 Norte 43 Norte 0 -- -- 49
2017-07-26 21:00:00 26 12 Norte 32 Noroeste 0 -- -- 44
2017-07-26 20:00:00 26.6 22 Norte 46 Norte 0 -- -- 41
2017-07-26 19:00:00 28.1 25 Norte 49 Norte 0 -- -- 36
2017-07-26 18:00:00 28.7 26 Norte 48 Norte 0 -- -- 33
2017-07-26 17:00:00 29 27 Norte 46 Norte 0 -- -- 31
2017-07-26 16:00:00 29.3 19 Norte 43 Nordeste 0 -- -- 33
2017-07-26 15:00:00 28 22 Norte 43 Norte 0 -- -- 36
2017-07-26 14:00:00 27.6 17 Norte 38 Norte 0 -- -- 37
2017-07-26 13:00:00 26.5 14 Norte 51 Norte 0 -- -- 39
2017-07-26 12:00:00 24.5 26 Norte 53 Nordeste 0 -- -- 43
2017-07-26 11:00:00 24 6 Norte 24 Este 0 -- -- 46
2017-07-26 10:00:00 22.3 8 Nordeste 44 Nordeste 0 -- -- 48
2017-07-26 09:00:00 20.6 8 Oeste 24 Noroeste 0 -- -- 55
2017-07-26 08:00:00 20.3 8 Noroeste 25 Noroeste 0 -- -- 54
2017-07-26 07:00:00 18.9 8 Sudeste 32 Nordeste 0 -- -- 58
2017-07-26 06:00:00 19.4 10 Norte 38 Nordeste 0 -- -- 56
2017-07-26 05:00:00 19.1 15 Sudoeste 42 Norte 0 -- -- 59
2017-07-26 04:00:00 19.5 26 Norte 53 Noroeste 0 -- -- 58
2017-07-26 03:00:00 20.3 23 Norte 52 Norte 0 -- -- 56
2017-07-26 02:00:00 21 27 Norte 62 Norte 0 -- -- 56
2017-07-26 01:00:00 21.6 32 Norte 64 Norte 0 -- -- 56
2017-07-26 00:00:00 22.1 35 Norte 63 Norte 0 -- -- 54
2017-07-25 23:00:00 22.6 26 Norte 50 Norte 0 -- -- 52
2017-07-25 22:00:00 23.3 22 Norte 45 Norte 0 -- -- 50
2017-07-25 21:00:00 24.4 23 Norte 41 Norte 0 -- -- 45
2017-07-25 20:00:00 25.3 18 Norte 45 Norte 0 -- -- 41
2017-07-25 19:00:00 25.7 22 Norte 63 Norte 0 -- -- 39
2017-07-25 18:00:00 25.8 35 Norte 62 Norte 0 -- -- 40
2017-07-25 17:00:00 26.7 24 Norte 58 Norte 0 -- -- 39
2017-07-25 16:00:00 26.8 35 Norte 63 Norte 0 -- -- 38
2017-07-25 15:00:00 27.1 34 Norte 67 Nordeste 0 -- -- 38
2017-07-25 14:00:00 26.6 33 Norte 71 Norte 0 -- -- 39
2017-07-25 13:00:00 26.7 31 Norte 52 Norte 0 -- -- 38
2017-07-25 12:00:00 26.3 24 Norte 45 Nordeste 0 -- -- 39
2017-07-25 11:00:00 25.6 17 Norte 41 Norte 0 -- -- 39
2017-07-25 10:00:00 24.3 12 Norte 42 Noroeste 0 -- -- 41
2017-07-25 09:00:00 23.6 10 Norte 39 Noroeste 0 -- -- 41
2017-07-25 08:00:00 22.1 21 Norte 50 Norte 0 -- -- 43
2017-07-25 07:00:00 20.3 22 Norte 55 Norte 0 -- -- 47
2017-07-25 06:00:00 19.4 29 Norte 62 Norte 0 -- -- 54
2017-07-25 05:00:00 19.7 29 Norte 64 Norte 0 -- -- 57
2017-07-25 04:00:00 20.1 31 Norte 66 Norte 0 -- -- 56
2017-07-25 03:00:00 20.1 40 Norte 70 Nordeste 0 -- -- 58
2017-07-25 02:00:00 20.5 42 Norte 84 Nordeste 0 -- -- 58
2017-07-25 01:00:00 21.2 29 Norte 72 Norte 0 -- -- 55
2017-07-25 00:00:00 21.5 48 Norte 95 Norte 0 -- -- 54
2017-07-24 23:00:00 21.9 47 Norte 76 Norte 0 -- -- 54
2017-07-24 22:00:00 22.3 26 Norte 65 Norte 0 -- -- 58
2017-07-24 21:00:00 23.7 26 Noroeste 61 Norte 0 -- -- 53
2017-07-24 20:00:00 24.4 34 Norte 60 Norte 0 -- -- 54
2017-07-24 19:00:00 25.9 33 Norte 58 Nordeste 0 -- -- 51
2017-07-24 18:00:00 27.9 27 Norte 51 Norte 0 -- -- 46
2017-07-24 17:00:00 29.1 19 Norte 44 Norte 0 -- -- 44
2017-07-24 16:00:00 29.4 20 Norte 44 Norte 0 -- -- 43
2017-07-24 15:00:00 29.9 18 Norte 42 Nordeste 0 -- -- 43
2017-07-24 14:00:00 29 15 Noroeste 36 Noroeste 0 -- -- 45
2017-07-24 13:00:00 27 18 Noroeste 49 Noroeste 0 -- -- 53
2017-07-24 12:00:00 26.2 18 Noroeste 39 Noroeste 0 -- -- 55
2017-07-24 11:00:00 25.4 15 Noroeste 32 Noroeste 0 -- -- 55
2017-07-24 10:00:00 23.5 8 Sudoeste 17 Oeste 0 -- -- 72
2017-07-24 09:00:00 21 6 Sur 11 Sudoeste 0 -- -- 78
2017-07-24 08:00:00 19.2 6 Nordeste 14 Nordeste 0 -- -- 87
2017-07-24 07:00:00 16.4 3 Nordeste 9 Este 0 -- -- 93
2017-07-24 06:00:00 16.4 3 Nordeste 10 Norte 0 -- -- 92
2017-07-24 05:00:00 17.5 3 Nordeste 15 Nordeste 0 -- -- 88
2017-07-24 04:00:00 17.2 10 Nordeste 14 Nordeste 0 -- -- 90
2017-07-24 03:00:00 17.1 2 Norte 8 Norte 0 -- -- 91
2017-07-24 02:00:00 18.2 2 Nordeste 13 Noroeste 0 -- -- 86
2017-07-24 01:00:00 19.1 9 Sur 23 Noroeste 0 -- -- 82
2017-07-24 00:00:00 18.8 3 Sudoeste 13 Oeste 0 -- -- 86
2017-07-23 23:00:00 19.4 3 Noroeste 21 Norte 0.2 -- -- 89
2017-07-23 22:00:00 19.1 8 Nordeste 16 Nordeste 3.8 -- -- 92
2017-07-23 21:00:00 19.6 9 Oeste 38 Noroeste 8.6 -- -- 88
2017-07-23 20:00:00 25 14 Norte 29 Noroeste 0 -- -- 54
2017-07-23 19:00:00 27 11 Noroeste 24 Noroeste 0 -- -- 50
2017-07-23 18:00:00 28.9 15 Sudoeste 25 Sudoeste 0 -- -- 47
2017-07-23 17:00:00 29.2 13 Este 27 Este 0 -- -- 45
2017-07-23 16:00:00 30.2 11 Sudeste 23 Sudeste 0 -- -- 43
2017-07-23 15:00:00 30.3 8 Este 18 Nordeste 0 -- -- 46
2017-07-23 14:00:00 28.9 11 Sur 20 Sur 0 -- -- 50
2017-07-23 13:00:00 27.4 9 Sur 16 Sur 0 -- -- 56
2017-07-23 12:00:00 27.3 9 Sudoeste 20 Sudoeste 0 -- -- 55
2017-07-23 11:00:00 27.3 8 Sur 12 Sudoeste 0 -- -- 58
2017-07-23 10:00:00 25.7 6 Oeste 10 Sudoeste 0.2 -- -- 61
2017-07-23 09:00:00 23.7 4 Sudoeste 7 Sudoeste 0 -- -- 70
2017-07-23 08:00:00 21.2 4 Norte 9 Este 0 -- -- 82
2017-07-23 07:00:00 19.8 0 Calma 8 Norte 0 -- -- 87
2017-07-23 06:00:00 19.3 3 Este 8 Norte 0 -- -- 87
2017-07-23 05:00:00 19.9 6 Nordeste 10 Norte 0 -- -- 87
2017-07-23 04:00:00 21 3 Nordeste 7 Norte 0 -- -- 88
2017-07-23 03:00:00 22.1 2 Este 5 Sudoeste 0 -- -- 90
2017-07-23 02:00:00 22.7 0 Calma 5 Este 0 -- -- 90
2017-07-23 01:00:00 22.4 2 Noroeste 8 Nordeste 0 -- -- 89
2017-07-23 00:00:00 22.1 3 Nordeste 9 Norte 0 -- -- 89
2017-07-22 23:00:00 22.8 2 Sur 9 Noroeste 0 -- -- 89
2017-07-22 22:00:00 23.5 0 Calma 8 Nordeste 0 -- -- 89
2017-07-22 21:00:00 24.9 6 Nordeste 13 Norte 0 -- -- 77
2017-07-22 20:00:00 26.1 8 Norte 25 Norte -- -- -- 75
2017-07-22 19:00:00 28.8 11 Nordeste 18 Nordeste 0 -- -- 59
2017-07-22 18:00:00 29.9 11 Sudeste 23 Sur 0 -- -- 56
2017-07-22 17:00:00 29.3 13 Sur 25 Sur 0 -- -- 58
2017-07-22 16:00:00 28.1 13 Sur 26 Sur 0 -- -- 62
2017-07-22 15:00:00 27.5 12 Sur 24 Sur 0 -- -- 61
2017-07-22 14:00:00 26.3 17 Sur 27 Sur 0 -- -- 61
2017-07-22 13:00:00 27.3 12 Sur 23 Sur 0 -- -- 58
2017-07-22 12:00:00 26.9 10 Sudoeste 16 Sudoeste 0 -- -- 56
2017-07-22 11:00:00 26.4 8 Sudoeste 12 Sudoeste 0 -- -- 59
2017-07-22 10:00:00 25.5 4 Sudoeste 13 Sudoeste 0 -- -- 63
2017-07-22 09:00:00 23.9 3 Sudoeste 7 Sudoeste 0 -- -- 69
2017-07-22 08:00:00 21.4 6 Nordeste 10 Nordeste 0 -- -- 77
2017-07-22 07:00:00 18 4 Nordeste 7 Norte 0 -- -- 87
2017-07-22 06:00:00 18.7 0 Calma 12 Nordeste 0 -- -- 84
2017-07-22 05:00:00 18.6 3 Norte 12 Nordeste 0 -- -- 84
2017-07-22 04:00:00 19.6 5 Nordeste 14 Nordeste 0 -- -- 81
2017-07-22 03:00:00 19.6 2 Norte 12 Nordeste 0 -- -- 81
2017-07-22 02:00:00 20.3 0 Calma 10 Nordeste 0 -- -- 77
2017-07-22 01:00:00 21.4 7 Nordeste 12 Nordeste 0 -- -- 74
2017-07-22 00:00:00 21 3 Norte 6 Norte 0 -- -- 77
2017-07-21 23:00:00 21.2 4 Este 8 Nordeste 0 -- -- 75
2017-07-21 22:00:00 22.4 0 Calma 8 Norte 0 -- -- 72
2017-07-21 21:00:00 24.4 4 Sudeste 14 Sur 0 -- -- 67
2017-07-21 20:00:00 25.9 7 Sur 18 Sur 0 -- -- 64
2017-07-21 19:00:00 26.9 10 Sudoeste 21 Sudoeste 0 -- -- 60
2017-07-21 18:00:00 26.8 11 Sur 26 Sur 0 -- -- 57
2017-07-21 17:00:00 26.8 12 Sur 23 Sudoeste 0 -- -- 59
2017-07-21 16:00:00 25.8 11 Sur 24 Sur 0 -- -- 60
2017-07-21 15:00:00 26.4 5 Noroeste 20 Nordeste 0 -- -- 59
2017-07-21 14:00:00 24.1 13 Nordeste 20 Sur 0 -- -- 64
2017-07-21 13:00:00 24.5 6 Este 17 Este 0 -- -- 69
2017-07-21 12:00:00 26.8 10 Sur 22 Sur 0 -- -- 54
2017-07-21 11:00:00 27.3 8 Sur 15 Sudoeste 0 -- -- 53
2017-07-21 10:00:00 26.8 5 Oeste 16 Nordeste 0 -- -- 55
2017-07-21 09:00:00 26.2 9 Nordeste 14 Este 0 -- -- 57
2017-07-21 08:00:00 21.5 0 Calma 7 Norte 0 -- -- 69
2017-07-21 07:00:00 18.5 4 Norte 7 Nordeste 0 -- -- 76
2017-07-21 06:00:00 19.1 3 Norte 8 Norte 0 -- -- 73
2017-07-21 05:00:00 19.2 4 Este 9 Noroeste 0 -- -- 73
2017-07-21 04:00:00 19.1 0 Calma 10 Norte 0 -- -- 74
2017-07-21 03:00:00 19.6 6 Norte 11 Norte 0 -- -- 71
2017-07-21 02:00:00 19.4 3 Norte 8 Norte 0 -- -- 72
2017-07-21 01:00:00 20.5 2 Sudeste 13 Nordeste 0 -- -- 67
2017-07-21 00:00:00 20.7 5 Norte 10 Nordeste 0 -- -- 67
2017-07-20 23:00:00 22.2 4 Norte 8 Nordeste 0 -- -- 62
2017-07-20 22:00:00 24.4 3 Este 19 Norte 0 -- -- 56
2017-07-20 21:00:00 24.7 10 Norte 20 Norte 0 -- -- 58
2017-07-20 20:00:00 25.7 9 Norte 15 Nordeste 0 -- -- 57
2017-07-20 19:00:00 25.9 8 Nordeste 36 Nordeste 0 -- -- 58
2017-07-20 18:00:00 28.3 21 Nordeste 41 Nordeste 0 -- -- 49
2017-07-20 17:00:00 29.8 23 Nordeste 39 Este 0 -- -- 43
2017-07-20 16:00:00 29.5 24 Este 38 Este 0 -- -- 46
2017-07-20 15:00:00 29.5 23 Nordeste 35 Este 0 -- -- 44
2017-07-20 14:00:00 28.3 19 Este 31 Este 0 -- -- 53
2017-07-20 13:00:00 27.7 9 Nordeste 21 Este 0 -- -- 56
2017-07-20 12:00:00 26.5 10 Nordeste 29 Este 0 -- -- 61
2017-07-20 11:00:00 25.3 17 Este 33 Este 0 -- -- 66
2017-07-20 10:00:00 24.8 14 Este 24 Este 0 -- -- 70
2017-07-20 09:00:00 23.1 13 Nordeste 24 Nordeste 0 -- -- 75
2017-07-20 08:00:00 22.9 9 Nordeste 26 Nordeste 0 -- -- 73
2017-07-20 07:00:00 22.9 13 Nordeste 35 Nordeste 0 -- -- 73
2017-07-20 06:00:00 23 21 Nordeste 43 Nordeste 0 -- -- 69
2017-07-20 05:00:00 23.1 23 Nordeste 45 Norte 0 -- -- 59
2017-07-20 04:00:00 22.5 13 Este 37 Norte 0 -- -- 68
2017-07-20 03:00:00 22.5 3 Este 7 Este 0 -- -- 89
2017-07-20 02:00:00 23.1 3 Norte 6 Nordeste 0 -- -- 86
2017-07-20 01:00:00 22.9 3 Norte 6 Noroeste 0 -- -- 88
2017-07-20 00:00:00 23.1 0 Calma 8 Sudeste 0 -- -- 87
2017-07-19 23:00:00 23.2 2 Este 10 Sur 0 -- -- 85
2017-07-19 22:00:00 24 6 Sudeste 14 Sudeste 0 -- -- 78
2017-07-19 21:00:00 24.9 5 Sudeste 18 Sur 0 -- -- 75
2017-07-19 20:00:00 25.5 13 Sudeste 27 Sur 0 -- -- 74
2017-07-19 19:00:00 28.5 16 Sur 39 Sur 0 -- -- 53
2017-07-19 18:00:00 30.1 22 Sur 39 Sur 0 -- -- 45
2017-07-19 17:00:00 29.1 25 Sur 37 Sudeste 0 -- -- 55
2017-07-19 16:00:00 29.5 22 Sudeste 36 Sur 0 -- -- 53
2017-07-19 15:00:00 29 20 Sur 32 Sur 0 -- -- 62
2017-07-19 14:00:00 28.6 21 Sur 32 Sur 0 -- -- 66
2017-07-19 13:00:00 27.6 20 Sur 28 Sur 0 -- -- 68
2017-07-19 12:00:00 28.9 17 Sur 28 Sur 0 -- -- 63
2017-07-19 11:00:00 27.9 9 Sudeste 18 Sur 0 -- -- 66
2017-07-19 10:00:00 26.2 9 Sur 19 Sur 0 -- -- 69
2017-07-19 09:00:00 23.9 5 Sur 11 Sudoeste 0 -- -- 77
2017-07-19 08:00:00 21.9 0 Calma 9 Nordeste 0 -- -- 79
2017-07-19 07:00:00 20.4 6 Nordeste 11 Nordeste 0 -- -- 76
2017-07-19 06:00:00 20.7 5 Norte 15 Nordeste 0 -- -- 80
2017-07-19 05:00:00 20.8 5 Nordeste 13 Nordeste 0 -- -- 83
2017-07-19 04:00:00 21.5 6 Nordeste 15 Nordeste 0 -- -- 84
2017-07-19 03:00:00 21.2 5 Este 14 Nordeste 0 -- -- 87
2017-07-19 02:00:00 21.1 4 Este 7 Nordeste 0 -- -- 89
2017-07-19 01:00:00 21.9 0 Calma 6 Nordeste 0 -- -- 90
2017-07-19 00:00:00 22.4 0 Calma 5 Norte 0 -- -- 88